sensor_id;sensor_type;location;lat;lon;timestamp;P1;durP1;ratioP1;P2;durP2;ratioP2
51438;SDS011;38816;51.142;-0.974;2023-07-13T00:01:46;109.43;;;101.25;;
51438;SDS011;38816;51.142;-0.974;2023-07-13T00:04:15;108.05;;;100.10;;
51438;SDS011;38816;51.142;-0.974;2023-07-13T00:06:42;110.18;;;102.18;;
51438;SDS011;38816;51.142;-0.974;2023-07-13T00:09:10;112.47;;;104.72;;
51438;SDS011;38816;51.142;-0.974;2023-07-13T00:11:37;112.38;;;104.03;;
51438;SDS011;38816;51.142;-0.974;2023-07-13T00:14:03;108.35;;;100.85;;
51438;SDS011;38816;51.142;-0.974;2023-07-13T00:16:29;112.75;;;104.72;;
51438;SDS011;38816;51.142;-0.974;2023-07-13T00:18:54;108.50;;;100.20;;
51438;SDS011;38816;51.142;-0.974;2023-07-13T00:21:19;118.60;;;109.57;;
51438;SDS011;38816;51.142;-0.974;2023-07-13T00:23:45;113.90;;;105.07;;
51438;SDS011;38816;51.142;-0.974;2023-07-13T00:26:10;112.88;;;104.55;;
51438;SDS011;38816;51.142;-0.974;2023-07-13T00:28:37;112.70;;;104.28;;
51438;SDS011;38816;51.142;-0.974;2023-07-13T00:31:04;112.90;;;105.05;;
51438;SDS011;38816;51.142;-0.974;2023-07-13T00:33:30;115.07;;;106.57;;
51438;SDS011;38816;51.142;-0.974;2023-07-13T00:35:56;118.78;;;109.97;;
51438;SDS011;38816;51.142;-0.974;2023-07-13T00:38:22;112.68;;;105.00;;
51438;SDS011;38816;51.142;-0.974;2023-07-13T00:40:48;112.68;;;104.28;;
51438;SDS011;38816;51.142;-0.974;2023-07-13T00:43:22;116.28;;;107.60;;
51438;SDS011;38816;51.142;-0.974;2023-07-13T00:48:15;115.82;;;107.20;;
51438;SDS011;38816;51.142;-0.974;2023-07-13T00:50:45;106.88;;;99.40;;
51438;SDS011;38816;51.142;-0.974;2023-07-13T00:53:13;104.63;;;96.85;;
51438;SDS011;38816;51.142;-0.974;2023-07-13T00:55:39;112.55;;;104.43;;
51438;SDS011;38816;51.142;-0.974;2023-07-13T00:58:05;103.15;;;95.88;;
51438;SDS011;38816;51.142;-0.974;2023-07-13T01:00:31;104.47;;;96.47;;
51438;SDS011;38816;51.142;-0.974;2023-07-13T01:02:59;107.13;;;99.45;;
51438;SDS011;38816;51.142;-0.974;2023-07-13T01:05:30;106.45;;;98.43;;
51438;SDS011;38816;51.142;-0.974;2023-07-13T01:07:58;102.63;;;95.15;;
51438;SDS011;38816;51.142;-0.974;2023-07-13T01:10:25;100.13;;;93.13;;
51438;SDS011;38816;51.142;-0.974;2023-07-13T01:12:51;104.80;;;97.57;;
51438;SDS011;38816;51.142;-0.974;2023-07-13T01:18:27;97.97;;;90.15;;
51438;SDS011;38816;51.142;-0.974;2023-07-13T01:20:54;92.25;;;85.40;;
51438;SDS011;38816;51.142;-0.974;2023-07-13T01:23:25;94.57;;;87.43;;
51438;SDS011;38816;51.142;-0.974;2023-07-13T01:25:52;97.18;;;90.40;;
51438;SDS011;38816;51.142;-0.974;2023-07-13T01:28:19;95.10;;;88.50;;
51438;SDS011;38816;51.142;-0.974;2023-07-13T01:30:44;94.00;;;86.75;;
51438;SDS011;38816;51.142;-0.974;2023-07-13T01:33:15;96.07;;;89.38;;
51438;SDS011;38816;51.142;-0.974;2023-07-13T01:35:41;94.40;;;87.55;;
51438;SDS011;38816;51.142;-0.974;2023-07-13T01:38:08;97.28;;;90.20;;
51438;SDS011;38816;51.142;-0.974;2023-07-13T01:40:35;96.88;;;90.05;;
51438;SDS011;38816;51.142;-0.974;2023-07-13T01:43:02;102.60;;;95.32;;
51438;SDS011;38816;51.142;-0.974;2023-07-13T01:45:28;96.75;;;89.63;;
51438;SDS011;38816;51.142;-0.974;2023-07-13T01:47:53;95.75;;;88.93;;
51438;SDS011;38816;51.142;-0.974;2023-07-13T01:50:19;95.35;;;88.57;;
51438;SDS011;38816;51.142;-0.974;2023-07-13T01:52:44;96.90;;;90.00;;
51438;SDS011;38816;51.142;-0.974;2023-07-13T01:55:10;97.35;;;89.85;;
51438;SDS011;38816;51.142;-0.974;2023-07-13T01:57:35;100.53;;;93.38;;
51438;SDS011;38816;51.142;-0.974;2023-07-13T02:00:03;95.45;;;88.22;;
51438;SDS011;38816;51.142;-0.974;2023-07-13T02:02:32;97.40;;;90.30;;
51438;SDS011;38816;51.142;-0.974;2023-07-13T02:04:58;99.57;;;92.50;;
51438;SDS011;38816;51.142;-0.974;2023-07-13T02:07:23;102.97;;;94.93;;
51438;SDS011;38816;51.142;-0.974;2023-07-13T02:09:49;96.32;;;89.40;;
51438;SDS011;38816;51.142;-0.974;2023-07-13T02:12:14;101.28;;;94.07;;
51438;SDS011;38816;51.142;-0.974;2023-07-13T02:14:40;101.75;;;93.70;;
51438;SDS011;38816;51.142;-0.974;2023-07-13T02:17:05;97.15;;;89.68;;
51438;SDS011;38816;51.142;-0.974;2023-07-13T02:19:31;97.97;;;91.10;;
51438;SDS011;38816;51.142;-0.974;2023-07-13T02:21:57;97.53;;;90.32;;
51438;SDS011;38816;51.142;-0.974;2023-07-13T02:24:22;99.78;;;92.57;;
51438;SDS011;38816;51.142;-0.974;2023-07-13T02:26:47;100.15;;;93.07;;
51438;SDS011;38816;51.142;-0.974;2023-07-13T02:29:13;98.78;;;91.80;;
51438;SDS011;38816;51.142;-0.974;2023-07-13T02:31:39;99.82;;;92.28;;
51438;SDS011;38816;51.142;-0.974;2023-07-13T02:34:04;94.70;;;87.50;;
51438;SDS011;38816;51.142;-0.974;2023-07-13T02:36:30;97.93;;;90.68;;
51438;SDS011;38816;51.142;-0.974;2023-07-13T02:38:57;96.10;;;88.93;;
51438;SDS011;38816;51.142;-0.974;2023-07-13T02:41:26;94.18;;;87.72;;
51438;SDS011;38816;51.142;-0.974;2023-07-13T02:43:51;94.75;;;87.97;;
51438;SDS011;38816;51.142;-0.974;2023-07-13T02:46:17;96.68;;;89.20;;
51438;SDS011;38816;51.142;-0.974;2023-07-13T02:48:44;91.90;;;84.32;;
51438;SDS011;38816;51.142;-0.974;2023-07-13T02:51:10;95.80;;;88.60;;
51438;SDS011;38816;51.142;-0.974;2023-07-13T02:53:36;91.47;;;85.25;;
51438;SDS011;38816;51.142;-0.974;2023-07-13T02:56:02;95.85;;;89.18;;
51438;SDS011;38816;51.142;-0.974;2023-07-13T02:58:29;90.53;;;83.97;;
51438;SDS011;38816;51.142;-0.974;2023-07-13T03:00:55;91.95;;;85.53;;
51438;SDS011;38816;51.142;-0.974;2023-07-13T03:03:21;93.53;;;86.65;;
51438;SDS011;38816;51.142;-0.974;2023-07-13T03:05:47;95.35;;;88.97;;
51438;SDS011;38816;51.142;-0.974;2023-07-13T03:08:15;94.05;;;87.50;;
51438;SDS011;38816;51.142;-0.974;2023-07-13T03:10:40;90.50;;;84.38;;
51438;SDS011;38816;51.142;-0.974;2023-07-13T03:13:06;95.78;;;88.90;;
51438;SDS011;38816;51.142;-0.974;2023-07-13T03:15:31;88.80;;;82.75;;
51438;SDS011;38816;51.142;-0.974;2023-07-13T03:18:00;89.10;;;82.93;;
51438;SDS011;38816;51.142;-0.974;2023-07-13T03:20:25;84.95;;;78.88;;
51438;SDS011;38816;51.142;-0.974;2023-07-13T03:22:51;87.50;;;81.30;;
51438;SDS011;38816;51.142;-0.974;2023-07-13T03:25:16;83.30;;;77.35;;
51438;SDS011;38816;51.142;-0.974;2023-07-13T03:27:42;82.13;;;76.40;;
51438;SDS011;38816;51.142;-0.974;2023-07-13T03:30:07;89.20;;;82.72;;
51438;SDS011;38816;51.142;-0.974;2023-07-13T03:32:33;83.45;;;77.13;;
51438;SDS011;38816;51.142;-0.974;2023-07-13T03:34:59;83.65;;;77.80;;
51438;SDS011;38816;51.142;-0.974;2023-07-13T03:37:24;84.00;;;78.03;;
51438;SDS011;38816;51.142;-0.974;2023-07-13T03:39:50;90.55;;;83.97;;
51438;SDS011;38816;51.142;-0.974;2023-07-13T03:42:16;97.22;;;89.53;;
51438;SDS011;38816;51.142;-0.974;2023-07-13T03:44:41;91.88;;;84.90;;
51438;SDS011;38816;51.142;-0.974;2023-07-13T03:47:07;95.10;;;88.07;;
51438;SDS011;38816;51.142;-0.974;2023-07-13T03:49:34;88.30;;;82.28;;
51438;SDS011;38816;51.142;-0.974;2023-07-13T03:52:00;89.72;;;82.90;;
51438;SDS011;38816;51.142;-0.974;2023-07-13T03:54:26;87.07;;;81.07;;
51438;SDS011;38816;51.142;-0.974;2023-07-13T03:56:51;89.25;;;83.07;;
51438;SDS011;38816;51.142;-0.974;2023-07-13T03:59:17;90.35;;;83.25;;
51438;SDS011;38816;51.142;-0.974;2023-07-13T04:01:43;92.55;;;85.70;;
51438;SDS011;38816;51.142;-0.974;2023-07-13T04:04:12;89.82;;;83.07;;
51438;SDS011;38816;51.142;-0.974;2023-07-13T04:06:37;88.53;;;81.50;;
51438;SDS011;38816;51.142;-0.974;2023-07-13T04:09:03;89.28;;;82.45;;
51438;SDS011;38816;51.142;-0.974;2023-07-13T04:11:36;90.32;;;84.00;;
51438;SDS011;38816;51.142;-0.974;2023-07-13T04:14:02;91.43;;;84.68;;
51438;SDS011;38816;51.142;-0.974;2023-07-13T04:16:27;78.93;;;72.70;;
51438;SDS011;38816;51.142;-0.974;2023-07-13T04:18:54;86.75;;;80.55;;
51438;SDS011;38816;51.142;-0.974;2023-07-13T04:21:25;87.90;;;81.43;;
51438;SDS011;38816;51.142;-0.974;2023-07-13T04:23:52;97.88;;;90.55;;
51438;SDS011;38816;51.142;-0.974;2023-07-13T04:26:17;90.07;;;83.35;;
51438;SDS011;38816;51.142;-0.974;2023-07-13T04:28:46;86.82;;;80.78;;
51438;SDS011;38816;51.142;-0.974;2023-07-13T04:31:12;85.70;;;79.75;;
51438;SDS011;38816;51.142;-0.974;2023-07-13T04:33:38;88.65;;;82.40;;
51438;SDS011;38816;51.142;-0.974;2023-07-13T04:36:04;86.93;;;80.53;;
51438;SDS011;38816;51.142;-0.974;2023-07-13T04:38:30;91.43;;;84.63;;
51438;SDS011;38816;51.142;-0.974;2023-07-13T04:41:01;89.07;;;82.60;;
51438;SDS011;38816;51.142;-0.974;2023-07-13T04:43:29;89.10;;;82.55;;
51438;SDS011;38816;51.142;-0.974;2023-07-13T04:45:56;89.55;;;83.45;;
51438;SDS011;38816;51.142;-0.974;2023-07-13T04:48:22;87.70;;;81.35;;
51438;SDS011;38816;51.142;-0.974;2023-07-13T04:50:54;81.97;;;75.97;;
51438;SDS011;38816;51.142;-0.974;2023-07-13T04:53:20;90.55;;;84.05;;
51438;SDS011;38816;51.142;-0.974;2023-07-13T04:55:46;86.70;;;80.32;;
51438;SDS011;38816;51.142;-0.974;2023-07-13T04:58:12;86.97;;;80.90;;
51438;SDS011;38816;51.142;-0.974;2023-07-13T05:00:37;87.20;;;81.13;;
51438;SDS011;38816;51.142;-0.974;2023-07-13T05:03:04;88.40;;;82.43;;
51438;SDS011;38816;51.142;-0.974;2023-07-13T05:05:30;87.82;;;81.30;;
51438;SDS011;38816;51.142;-0.974;2023-07-13T05:07:55;90.93;;;84.32;;
51438;SDS011;38816;51.142;-0.974;2023-07-13T05:10:21;89.35;;;82.65;;
51438;SDS011;38816;51.142;-0.974;2023-07-13T05:12:47;90.75;;;84.32;;
51438;SDS011;38816;51.142;-0.974;2023-07-13T05:15:13;90.00;;;83.78;;
51438;SDS011;38816;51.142;-0.974;2023-07-13T05:17:39;95.45;;;88.38;;
51438;SDS011;38816;51.142;-0.974;2023-07-13T05:20:06;97.47;;;90.53;;
51438;SDS011;38816;51.142;-0.974;2023-07-13T05:22:33;103.30;;;95.45;;
51438;SDS011;38816;51.142;-0.974;2023-07-13T05:25:00;104.93;;;97.25;;
51438;SDS011;38816;51.142;-0.974;2023-07-13T05:27:27;99.85;;;92.97;;
51438;SDS011;38816;51.142;-0.974;2023-07-13T05:29:52;103.18;;;95.90;;
51438;SDS011;38816;51.142;-0.974;2023-07-13T05:32:18;109.07;;;101.57;;
51438;SDS011;38816;51.142;-0.974;2023-07-13T05:34:44;111.82;;;104.07;;
51438;SDS011;38816;51.142;-0.974;2023-07-13T05:37:09;112.32;;;104.55;;
51438;SDS011;38816;51.142;-0.974;2023-07-13T05:39:35;112.68;;;104.90;;
51438;SDS011;38816;51.142;-0.974;2023-07-13T05:42:01;114.82;;;106.53;;
51438;SDS011;38816;51.142;-0.974;2023-07-13T05:44:27;119.10;;;110.75;;
51438;SDS011;38816;51.142;-0.974;2023-07-13T05:46:52;124.47;;;115.80;;
51438;SDS011;38816;51.142;-0.974;2023-07-13T05:49:18;119.68;;;111.43;;
51438;SDS011;38816;51.142;-0.974;2023-07-13T05:51:43;130.07;;;120.43;;
51438;SDS011;38816;51.142;-0.974;2023-07-13T05:54:09;126.75;;;118.15;;
51438;SDS011;38816;51.142;-0.974;2023-07-13T05:56:37;129.40;;;120.28;;
51438;SDS011;38816;51.142;-0.974;2023-07-13T05:59:03;123.97;;;115.50;;
51438;SDS011;38816;51.142;-0.974;2023-07-13T06:01:29;124.97;;;116.25;;
51438;SDS011;38816;51.142;-0.974;2023-07-13T06:03:56;136.02;;;126.68;;
51438;SDS011;38816;51.142;-0.974;2023-07-13T06:06:21;132.82;;;123.20;;
51438;SDS011;38816;51.142;-0.974;2023-07-13T06:08:46;132.70;;;123.80;;
51438;SDS011;38816;51.142;-0.974;2023-07-13T06:11:13;130.63;;;121.70;;
51438;SDS011;38816;51.142;-0.974;2023-07-13T06:13:44;119.22;;;111.35;;
51438;SDS011;38816;51.142;-0.974;2023-07-13T06:16:10;118.40;;;110.25;;
51438;SDS011;38816;51.142;-0.974;2023-07-13T06:18:37;118.38;;;110.30;;
51438;SDS011;38816;51.142;-0.974;2023-07-13T06:21:21;122.28;;;113.80;;
51438;SDS011;38816;51.142;-0.974;2023-07-13T06:23:50;112.28;;;104.55;;
51438;SDS011;38816;51.142;-0.974;2023-07-13T06:26:20;112.82;;;104.72;;
51438;SDS011;38816;51.142;-0.974;2023-07-13T06:28:46;117.03;;;109.20;;
51438;SDS011;38816;51.142;-0.974;2023-07-13T06:31:12;111.65;;;103.57;;
51438;SDS011;38816;51.142;-0.974;2023-07-13T06:33:38;109.75;;;102.13;;
51438;SDS011;38816;51.142;-0.974;2023-07-13T06:36:05;104.25;;;97.03;;
51438;SDS011;38816;51.142;-0.974;2023-07-13T06:38:31;104.05;;;96.53;;
51438;SDS011;38816;51.142;-0.974;2023-07-13T06:40:57;99.65;;;92.20;;
51438;SDS011;38816;51.142;-0.974;2023-07-13T06:43:22;99.55;;;92.03;;
51438;SDS011;38816;51.142;-0.974;2023-07-13T06:45:50;103.53;;;96.63;;
51438;SDS011;38816;51.142;-0.974;2023-07-13T06:48:16;101.70;;;94.50;;
51438;SDS011;38816;51.142;-0.974;2023-07-13T06:50:43;103.43;;;96.10;;
51438;SDS011;38816;51.142;-0.974;2023-07-13T06:53:09;105.50;;;98.28;;
51438;SDS011;38816;51.142;-0.974;2023-07-13T06:55:36;109.22;;;101.57;;
51438;SDS011;38816;51.142;-0.974;2023-07-13T06:58:02;107.82;;;100.70;;
51438;SDS011;38816;51.142;-0.974;2023-07-13T07:00:27;118.22;;;109.78;;
51438;SDS011;38816;51.142;-0.974;2023-07-13T07:02:53;115.32;;;107.57;;
51438;SDS011;38816;51.142;-0.974;2023-07-13T07:05:18;132.05;;;123.13;;
51438;SDS011;38816;51.142;-0.974;2023-07-13T07:07:46;127.25;;;118.57;;
51438;SDS011;38816;51.142;-0.974;2023-07-13T07:10:11;128.95;;;120.18;;
51438;SDS011;38816;51.142;-0.974;2023-07-13T07:12:37;128.93;;;120.22;;
51438;SDS011;38816;51.142;-0.974;2023-07-13T07:15:02;129.90;;;121.00;;
51438;SDS011;38816;51.142;-0.974;2023-07-13T07:17:28;131.18;;;122.30;;
51438;SDS011;38816;51.142;-0.974;2023-07-13T07:19:54;137.20;;;128.13;;
51438;SDS011;38816;51.142;-0.974;2023-07-13T07:22:20;142.00;;;132.40;;
51438;SDS011;38816;51.142;-0.974;2023-07-13T07:24:46;133.60;;;124.78;;
51438;SDS011;38816;51.142;-0.974;2023-07-13T07:27:12;140.10;;;130.23;;
51438;SDS011;38816;51.142;-0.974;2023-07-13T07:29:37;131.70;;;122.75;;
51438;SDS011;38816;51.142;-0.974;2023-07-13T07:32:03;148.35;;;137.15;;
51438;SDS011;38816;51.142;-0.974;2023-07-13T07:34:29;133.15;;;124.18;;
51438;SDS011;38816;51.142;-0.974;2023-07-13T07:36:58;138.75;;;129.57;;
51438;SDS011;38816;51.142;-0.974;2023-07-13T07:39:26;143.68;;;133.98;;
51438;SDS011;38816;51.142;-0.974;2023-07-13T07:41:51;144.32;;;134.43;;
51438;SDS011;38816;51.142;-0.974;2023-07-13T07:44:17;151.75;;;141.63;;
51438;SDS011;38816;51.142;-0.974;2023-07-13T07:46:42;154.35;;;143.85;;
51438;SDS011;38816;51.142;-0.974;2023-07-13T07:49:08;148.00;;;138.15;;
51438;SDS011;38816;51.142;-0.974;2023-07-13T07:51:34;162.25;;;150.77;;
51438;SDS011;38816;51.142;-0.974;2023-07-13T07:53:59;176.20;;;164.68;;
51438;SDS011;38816;51.142;-0.974;2023-07-13T07:56:25;185.35;;;173.07;;
51438;SDS011;38816;51.142;-0.974;2023-07-13T07:58:50;182.63;;;170.23;;
51438;SDS011;38816;51.142;-0.974;2023-07-13T08:01:16;168.25;;;157.07;;
51438;SDS011;38816;51.142;-0.974;2023-07-13T08:03:41;206.23;;;192.80;;
51438;SDS011;38816;51.142;-0.974;2023-07-13T08:06:07;201.48;;;188.13;;
51438;SDS011;38816;51.142;-0.974;2023-07-13T08:08:32;189.43;;;176.93;;
51438;SDS011;38816;51.142;-0.974;2023-07-13T08:11:02;182.45;;;170.40;;
51438;SDS011;38816;51.142;-0.974;2023-07-13T08:13:28;208.20;;;194.55;;
51438;SDS011;38816;51.142;-0.974;2023-07-13T08:15:54;242.25;;;226.60;;
51438;SDS011;38816;51.142;-0.974;2023-07-13T08:18:19;248.65;;;232.57;;
51438;SDS011;38816;51.142;-0.974;2023-07-13T08:20:45;263.88;;;246.57;;
51438;SDS011;38816;51.142;-0.974;2023-07-13T08:23:11;234.38;;;219.43;;
51438;SDS011;38816;51.142;-0.974;2023-07-13T08:25:37;258.75;;;241.45;;
51438;SDS011;38816;51.142;-0.974;2023-07-13T08:28:03;281.52;;;263.33;;
51438;SDS011;38816;51.142;-0.974;2023-07-13T08:30:29;247.88;;;231.73;;
51438;SDS011;38816;51.142;-0.974;2023-07-13T08:32:54;240.48;;;224.80;;
51438;SDS011;38816;51.142;-0.974;2023-07-13T08:35:20;252.15;;;235.70;;
51438;SDS011;38816;51.142;-0.974;2023-07-13T08:37:46;234.07;;;218.85;;
51438;SDS011;38816;51.142;-0.974;2023-07-13T08:40:12;226.68;;;211.98;;
51438;SDS011;38816;51.142;-0.974;2023-07-13T08:47:54;216.13;;;201.98;;
51438;SDS011;38816;51.142;-0.974;2023-07-13T08:50:28;223.20;;;208.82;;
51438;SDS011;38816;51.142;-0.974;2023-07-13T08:52:59;232.90;;;218.05;;
51438;SDS011;38816;51.142;-0.974;2023-07-13T08:55:29;212.07;;;198.50;;
51438;SDS011;38816;51.142;-0.974;2023-07-13T08:58:03;262.08;;;245.27;;
51438;SDS011;38816;51.142;-0.974;2023-07-13T09:00:41;244.38;;;228.27;;
51438;SDS011;38816;51.142;-0.974;2023-07-13T09:03:25;254.45;;;238.13;;
51438;SDS011;38816;51.142;-0.974;2023-07-13T09:05:57;272.48;;;254.52;;
51438;SDS011;38816;51.142;-0.974;2023-07-13T09:14:01;246.82;;;230.90;;
51438;SDS011;38816;51.142;-0.974;2023-07-13T09:16:47;256.60;;;239.88;;
51438;SDS011;38816;51.142;-0.974;2023-07-13T09:19:21;267.23;;;250.13;;
51438;SDS011;38816;51.142;-0.974;2023-07-13T09:21:52;250.73;;;234.55;;
51438;SDS011;38816;51.142;-0.974;2023-07-13T09:27:01;241.82;;;226.23;;
51438;SDS011;38816;51.142;-0.974;2023-07-13T09:29:36;244.35;;;228.50;;
51438;SDS011;38816;51.142;-0.974;2023-07-13T09:32:09;265.38;;;248.30;;
51438;SDS011;38816;51.142;-0.974;2023-07-13T09:34:38;262.98;;;246.02;;
51438;SDS011;38816;51.142;-0.974;2023-07-13T09:37:03;267.13;;;249.57;;
51438;SDS011;38816;51.142;-0.974;2023-07-13T09:39:31;262.73;;;245.73;;
51438;SDS011;38816;51.142;-0.974;2023-07-13T09:44:38;279.08;;;261.00;;
51438;SDS011;38816;51.142;-0.974;2023-07-13T09:47:16;296.40;;;276.40;;
51438;SDS011;38816;51.142;-0.974;2023-07-13T09:49:43;282.45;;;264.02;;
51438;SDS011;38816;51.142;-0.974;2023-07-13T09:52:13;284.20;;;265.50;;
51438;SDS011;38816;51.142;-0.974;2023-07-13T09:54:43;304.63;;;284.40;;
51438;SDS011;38816;51.142;-0.974;2023-07-13T09:57:13;308.92;;;288.25;;
51438;SDS011;38816;51.142;-0.974;2023-07-13T09:59:43;316.98;;;296.33;;
51438;SDS011;38816;51.142;-0.974;2023-07-13T10:04:53;298.35;;;279.10;;
51438;SDS011;38816;51.142;-0.974;2023-07-13T10:07:22;342.13;;;319.52;;
51438;SDS011;38816;51.142;-0.974;2023-07-13T10:09:51;350.52;;;327.35;;
51438;SDS011;38816;51.142;-0.974;2023-07-13T10:12:19;351.30;;;328.27;;
51438;SDS011;38816;51.142;-0.974;2023-07-13T10:14:45;326.60;;;304.90;;
51438;SDS011;38816;51.142;-0.974;2023-07-13T10:17:11;328.38;;;306.63;;
51438;SDS011;38816;51.142;-0.974;2023-07-13T10:19:39;307.98;;;287.80;;
51438;SDS011;38816;51.142;-0.974;2023-07-13T10:24:48;300.35;;;280.88;;
51438;SDS011;38816;51.142;-0.974;2023-07-13T10:27:20;327.05;;;305.40;;
51438;SDS011;38816;51.142;-0.974;2023-07-13T10:29:59;284.85;;;266.45;;
51438;SDS011;38816;51.142;-0.974;2023-07-13T10:32:33;283.15;;;264.73;;
51438;SDS011;38816;51.142;-0.974;2023-07-13T10:34:59;267.30;;;250.15;;
51438;SDS011;38816;51.142;-0.974;2023-07-13T10:37:27;233.80;;;217.80;;
51438;SDS011;38816;51.142;-0.974;2023-07-13T10:40:18;222.63;;;207.43;;
51438;SDS011;38816;51.142;-0.974;2023-07-13T10:42:59;192.93;;;180.43;;
51438;SDS011;38816;51.142;-0.974;2023-07-13T10:45:31;186.32;;;174.10;;
51438;SDS011;38816;51.142;-0.974;2023-07-13T10:48:00;170.32;;;159.25;;
51438;SDS011;38816;51.142;-0.974;2023-07-13T10:50:27;165.07;;;154.05;;
51438;SDS011;38816;51.142;-0.974;2023-07-13T10:53:02;160.40;;;149.90;;
51438;SDS011;38816;51.142;-0.974;2023-07-13T11:01:38;159.48;;;149.05;;
51438;SDS011;38816;51.142;-0.974;2023-07-13T11:04:01;141.02;;;131.70;;
51438;SDS011;38816;51.142;-0.974;2023-07-13T11:09:17;160.85;;;150.30;;
51438;SDS011;38816;51.142;-0.974;2023-07-13T11:11:58;158.52;;;148.18;;
51438;SDS011;38816;51.142;-0.974;2023-07-13T11:17:23;191.02;;;178.73;;
51438;SDS011;38816;51.142;-0.974;2023-07-13T11:22:42;222.23;;;207.95;;
51438;SDS011;38816;51.142;-0.974;2023-07-13T11:25:26;209.27;;;195.82;;
51438;SDS011;38816;51.142;-0.974;2023-07-13T11:30:32;227.18;;;212.75;;
51438;SDS011;38816;51.142;-0.974;2023-07-13T11:38:41;284.50;;;266.17;;
51438;SDS011;38816;51.142;-0.974;2023-07-13T11:41:25;300.73;;;281.40;;
51438;SDS011;38816;51.142;-0.974;2023-07-13T11:43:56;295.58;;;276.63;;
51438;SDS011;38816;51.142;-0.974;2023-07-13T11:46:30;255.50;;;239.18;;
51438;SDS011;38816;51.142;-0.974;2023-07-13T11:48:55;285.55;;;266.92;;
51438;SDS011;38816;51.142;-0.974;2023-07-13T11:51:21;253.23;;;237.10;;
51438;SDS011;38816;51.142;-0.974;2023-07-13T11:53:53;306.00;;;286.25;;
51438;SDS011;38816;51.142;-0.974;2023-07-13T11:56:21;284.85;;;266.58;;
51438;SDS011;38816;51.142;-0.974;2023-07-13T11:58:52;311.13;;;291.17;;
51438;SDS011;38816;51.142;-0.974;2023-07-13T12:01:21;274.08;;;256.55;;
51438;SDS011;38816;51.142;-0.974;2023-07-13T12:03:49;298.40;;;278.88;;
51438;SDS011;38816;51.142;-0.974;2023-07-13T12:06:35;289.40;;;270.75;;
51438;SDS011;38816;51.142;-0.974;2023-07-13T12:09:10;289.08;;;269.73;;
51438;SDS011;38816;51.142;-0.974;2023-07-13T12:11:45;247.68;;;231.40;;
51438;SDS011;38816;51.142;-0.974;2023-07-13T12:14:17;267.40;;;250.20;;
51438;SDS011;38816;51.142;-0.974;2023-07-13T12:21:54;263.67;;;246.17;;
51438;SDS011;38816;51.142;-0.974;2023-07-13T12:24:22;264.00;;;246.70;;
51438;SDS011;38816;51.142;-0.974;2023-07-13T12:26:52;241.45;;;225.73;;
51438;SDS011;38816;51.142;-0.974;2023-07-13T12:29:20;256.35;;;239.65;;
51438;SDS011;38816;51.142;-0.974;2023-07-13T12:31:47;244.80;;;228.82;;
51438;SDS011;38816;51.142;-0.974;2023-07-13T12:34:15;244.68;;;228.60;;
51438;SDS011;38816;51.142;-0.974;2023-07-13T12:36:50;240.20;;;224.27;;
51438;SDS011;38816;51.142;-0.974;2023-07-13T12:41:47;280.27;;;262.20;;
51438;SDS011;38816;51.142;-0.974;2023-07-13T12:44:15;264.50;;;247.10;;
51438;SDS011;38816;51.142;-0.974;2023-07-13T12:46:56;311.30;;;290.98;;
51438;SDS011;38816;51.142;-0.974;2023-07-13T12:49:27;372.30;;;347.40;;
51438;SDS011;38816;51.142;-0.974;2023-07-13T12:51:58;348.50;;;324.65;;
51438;SDS011;38816;51.142;-0.974;2023-07-13T12:54:26;347.05;;;324.15;;
51438;SDS011;38816;51.142;-0.974;2023-07-13T12:56:52;365.25;;;340.65;;
51438;SDS011;38816;51.142;-0.974;2023-07-13T12:59:21;336.63;;;314.38;;
51438;SDS011;38816;51.142;-0.974;2023-07-13T13:01:48;350.77;;;327.73;;
51438;SDS011;38816;51.142;-0.974;2023-07-13T13:04:15;377.15;;;351.83;;
51438;SDS011;38816;51.142;-0.974;2023-07-13T13:06:46;387.50;;;361.27;;
51438;SDS011;38816;51.142;-0.974;2023-07-13T13:09:13;380.05;;;354.17;;
51438;SDS011;38816;51.142;-0.974;2023-07-13T13:11:40;419.67;;;391.17;;
51438;SDS011;38816;51.142;-0.974;2023-07-13T13:14:06;376.58;;;351.15;;
51438;SDS011;38816;51.142;-0.974;2023-07-13T13:16:33;377.98;;;352.38;;
51438;SDS011;38816;51.142;-0.974;2023-07-13T13:19:23;367.42;;;342.40;;
51438;SDS011;38816;51.142;-0.974;2023-07-13T13:21:53;395.77;;;369.08;;
51438;SDS011;38816;51.142;-0.974;2023-07-13T13:24:23;380.52;;;354.65;;
51438;SDS011;38816;51.142;-0.974;2023-07-13T13:26:51;373.75;;;348.63;;
51438;SDS011;38816;51.142;-0.974;2023-07-13T13:29:20;379.27;;;353.42;;
51438;SDS011;38816;51.142;-0.974;2023-07-13T13:31:51;350.38;;;327.23;;
51438;SDS011;38816;51.142;-0.974;2023-07-13T13:34:18;357.67;;;333.38;;
51438;SDS011;38816;51.142;-0.974;2023-07-13T13:36:44;360.15;;;336.10;;
51438;SDS011;38816;51.142;-0.974;2023-07-13T13:41:48;362.88;;;338.17;;
51438;SDS011;38816;51.142;-0.974;2023-07-13T13:44:15;335.92;;;313.38;;
51438;SDS011;38816;51.142;-0.974;2023-07-13T13:46:41;376.58;;;350.95;;
51438;SDS011;38816;51.142;-0.974;2023-07-13T13:49:14;367.50;;;342.77;;
51438;SDS011;38816;51.142;-0.974;2023-07-13T13:51:42;373.70;;;348.48;;
51438;SDS011;38816;51.142;-0.974;2023-07-13T13:54:14;372.67;;;347.25;;
51438;SDS011;38816;51.142;-0.974;2023-07-13T13:56:45;404.15;;;376.63;;
51438;SDS011;38816;51.142;-0.974;2023-07-13T13:59:12;413.42;;;385.05;;
51438;SDS011;38816;51.142;-0.974;2023-07-13T14:01:39;418.95;;;390.55;;
51438;SDS011;38816;51.142;-0.974;2023-07-13T14:04:06;383.70;;;357.50;;
51438;SDS011;38816;51.142;-0.974;2023-07-13T14:06:39;373.67;;;348.30;;
51438;SDS011;38816;51.142;-0.974;2023-07-13T14:09:08;360.85;;;336.63;;
51438;SDS011;38816;51.142;-0.974;2023-07-13T14:11:36;353.75;;;329.48;;
51438;SDS011;38816;51.142;-0.974;2023-07-13T14:14:01;362.65;;;338.42;;
51438;SDS011;38816;51.142;-0.974;2023-07-13T14:16:30;375.38;;;349.83;;
51438;SDS011;38816;51.142;-0.974;2023-07-13T14:18:57;347.02;;;323.90;;
51438;SDS011;38816;51.142;-0.974;2023-07-13T14:21:25;323.98;;;302.33;;
51438;SDS011;38816;51.142;-0.974;2023-07-13T14:23:51;301.10;;;281.20;;
51438;SDS011;38816;51.142;-0.974;2023-07-13T14:26:24;296.30;;;276.65;;
51438;SDS011;38816;51.142;-0.974;2023-07-13T14:28:52;303.60;;;283.80;;
51438;SDS011;38816;51.142;-0.974;2023-07-13T14:31:20;328.60;;;306.65;;
51438;SDS011;38816;51.142;-0.974;2023-07-13T14:33:46;316.50;;;295.50;;
51438;SDS011;38816;51.142;-0.974;2023-07-13T14:36:21;312.38;;;291.13;;
51438;SDS011;38816;51.142;-0.974;2023-07-13T14:38:52;284.10;;;265.08;;
51438;SDS011;38816;51.142;-0.974;2023-07-13T14:41:18;239.57;;;223.55;;
51438;SDS011;38816;51.142;-0.974;2023-07-13T14:43:43;208.38;;;194.38;;
51438;SDS011;38816;51.142;-0.974;2023-07-13T14:46:24;202.30;;;188.90;;
51438;SDS011;38816;51.142;-0.974;2023-07-13T14:49:04;189.10;;;176.48;;
51438;SDS011;38816;51.142;-0.974;2023-07-13T14:51:34;167.38;;;155.48;;
51438;SDS011;38816;51.142;-0.974;2023-07-13T14:54:04;161.93;;;150.25;;
51438;SDS011;38816;51.142;-0.974;2023-07-13T14:56:31;168.10;;;156.23;;